首页
METAR-TAF:

METAR-TAF

机场 :

Carroll, 艾奥瓦州, 美国

纬度: 42-03N, 经度: 094-47W, 海拔: 375米

当前天气观测

该预报发布于16分钟前的13:35 UTC
风速12节,风向西转西南
温度 21°C
湿度 83%
气压 1013 hPa
能見度: 16.1公里
少量云层高于1600英尺

METAR: KCIN 251335Z AUTO 25012KT 10SM FEW016 21/18 A2990 RMK AO2

时间: 08:51 (13:51 UTC)


TAF: 丢失

超过4000个机场的气象观测和天气预报(METAR&TAF报告)。

可查询的气象台以黄色和红色小点在地图上表示。

将鼠标移到小点上方,可查看气象台名称。

然后点击查看天气观测和预报。

如需切换地图:点击带黑十字的绿色按钮放大地图;点击带横线的绿色按钮缩小地图;或者点击绿色箭头查看邻近地区的地图。


METAR-TAF: